createdAt,value
2023-06-16T00:23:56.457Z,1005.275
2023-06-16T00:54:12.542Z,1005.1460000000001
2023-06-16T01:24:29.908Z,1005.135
2023-06-16T01:54:47.664Z,1005.212
2023-06-16T02:25:03.869Z,1005.186
2023-06-16T02:55:20.696Z,1005.159
2023-06-16T03:25:38.654Z,1005.128
2023-06-16T03:55:57.925Z,1005.209
2023-06-16T04:26:17.702Z,1005.352
2023-06-16T04:56:38.537Z,1005.37
2023-06-16T05:27:05.335Z,1005.3710000000001
2023-06-16T05:57:29.842Z,1005.3610000000001
2023-06-16T06:27:51.409Z,1005.648
2023-06-16T06:58:25.259Z,1005.94
2023-06-16T07:28:54.800Z,1006.1139999999999
2023-06-16T07:59:19.546Z,1006.075
2023-06-16T08:29:40.131Z,1006.034
2023-06-16T09:00:02.568Z,1005.883
2023-06-16T09:30:26.031Z,1005.7230000000001
2023-06-16T10:00:45.621Z,1005.678
2023-06-16T10:31:04.173Z,1005.7139999999999
2023-06-16T11:01:11.686Z,1005.3489999999999
2023-06-16T11:31:38.777Z,1005.216
2023-06-16T12:01:58.326Z,1004.985
2023-06-16T12:32:17.992Z,1004.783
2023-06-16T13:02:21.600Z,1004.768
2023-06-16T13:32:39.063Z,1004.579
2023-06-16T14:02:59.755Z,1004.4060000000001
2023-06-16T14:33:03.412Z,1004.1060000000001
2023-06-16T15:03:21.341Z,1004.2339999999999
2023-06-16T15:33:32.492Z,1004.0160000000001
2023-06-16T16:03:50.145Z,1003.8380000000001
2023-06-16T16:34:06.886Z,1003.738
2023-06-16T17:04:22.349Z,1003.648
2023-06-16T17:34:41.018Z,1003.682
2023-06-16T18:04:59.383Z,1003.707
2023-06-16T18:35:14.902Z,1003.85
2023-06-16T19:05:31.067Z,1003.925
2023-06-16T19:35:47.658Z,1004.0310000000001
2023-06-16T20:06:02.848Z,1004.2189999999999
2023-06-16T20:36:19.160Z,1004.4739999999999
2023-06-16T21:06:34.804Z,1004.456
2023-06-16T21:36:50.583Z,1004.415
2023-06-16T22:37:27.454Z,1004.512
2023-06-16T23:07:45.760Z,1004.6
2023-06-16T23:38:01.525Z,1004.442
